Latest Coastal Weather Observations for Yanakie

IDV60701

Issued at 6:21 am EDT Wednesday 17 January 2018 (issued every 10 minutes, with the page automatically refreshed every 10 minutes)

About coastal observations | Map of coastal stations | Coastal observations for VIC | Marine services | Other Formats
Station Details ID: 085301 Name: YANAKIE Lat: -38.81 Lon: 146.19 Height: 13.3 m
Data from the previous 72 hours. | See also: Recent months at Yanakie
Date/Time
EDT
Temp
°C
Wind Pressure Rain since
9am
mm
Weather Cloud Vis
km
Sea
Height
m
Swell
Dir  Spd
kts
Gust
kts
hPa Trend Height
m
Period
s
Dir
17/06:00am 14.6 NE 6 10 1019.3 - 0.0 - - - - - - -
17/05:30am 14.5 NE 7 10 1019.4 - 0.0 - - - - - - -
17/05:00am 14.8 NE 7 11 1019.5 - 0.0 - - - - - - -
17/04:30am 14.9 ENE 7 11 1019.6 - 0.0 - - - - - - -
17/04:00am 15.1 ENE 9 14 1019.7 - 0.0 - - - - - - -
17/03:30am 15.1 ENE 8 13 1020.0 - 0.0 - - - - - - -
17/03:00am 15.1 ENE 7 11 1020.3 - 0.0 - - - - - - -
17/02:30am 15.3 ENE 6 12 1020.6 - 0.0 - - - - - - -
17/02:00am 15.5 ENE 8 11 1021.0 - 0.0 - - - - - - -
17/01:30am 15.6 ENE 8 12 1021.3 - 0.0 - - - - - - -
17/01:00am 15.6 ENE 8 11 1021.7 - 0.0 - - - - - - -
17/12:30am 15.4 ENE 7 10 1021.9 - 0.0 - - - - - - -
17/12:00am 15.3 ENE 6 10 1021.9 - 0.0 - - - - - - -
 
Date/Time
EDT
Temp
°C
Wind Pressure Rain since
9am
mm
Weather Cloud Vis
km
Sea
Height
m
Swell
Dir  Spd
kts
Gust
kts
hPa Trend Height
m
Period
s
Dir
16/11:30pm 15.1 NE 6 8 1021.9 - 0.0 - - - - - - -
16/11:00pm 15.1 ENE 4 7 1022.2 - 0.0 - - - - - - -
16/10:30pm 15.6 ENE 5 8 1022.3 - 0.0 - - - - - - -
16/10:00pm 15.8 ENE 6 9 1022.5 - 0.0 - - - - - - -
16/09:30pm 16.1 E 5 9 1022.5 - 0.0 - - - - - - -
16/09:00pm 16.6 E 6 10 1022.3 - 0.0 - - - - - - -
16/08:30pm 17.4 E 6 11 1022.4 - 0.0 - - - - - - -
16/08:00pm 18.1 E 7 12 1022.2 - 0.0 - - - - - - -
16/07:30pm 18.8 E 8 12 1022.2 - 0.0 - - - - - - -
16/07:00pm 19.2 E 9 13 1022.1 - 0.0 - - - - - - -
16/06:30pm 19.6 E 9 14 1022.2 - 0.0 - - - - - - -
16/06:00pm 20.0 E 9 16 1022.0 - 0.0 - - - - - - -
16/05:30pm 20.0 ENE 11 16 1022.0 - 0.0 - - - - - - -
16/05:00pm 19.9 E 10 15 1022.4 - 0.0 - - - - - - -
16/04:30pm 19.8 E 11 18 1022.6 - 0.0 - - - - - - -
16/04:00pm 20.0 ESE 12 18 1022.9 - 0.0 - - - - - - -
16/03:30pm 19.9 ESE 11 18 1023.0 - 0.0 - - - - - - -
16/03:00pm 20.1 ESE 12 18 1023.1 - 0.0 - - - - - - -
16/02:30pm 20.0 ESE 11 16 1023.2 - 0.0 - - - - - - -
16/02:00pm 19.6 ESE 12 18 1023.3 - 0.0 - - - - - - -
16/01:30pm 19.4 ESE 12 19 1023.8 - 0.0 - - - - - - -
16/01:00pm 19.6 ESE 11 19 1024.3 - 0.0 - - - - - - -
16/12:30pm 20.2 ESE 10 17 1024.4 - 0.0 - - - - - - -
16/12:00pm 20.1 ESE 11 16 1024.7 - 0.0 - - - - - - -
16/11:30am 20.0 ESE 10 16 1024.7 - 0.0 - - - - - - -
16/11:00am 19.7 E 10 16 1024.7 - 0.0 - - - - - - -
16/10:30am 19.4 E 11 17 1024.6 - 0.0 - - - - - - -
16/10:00am 19.2 E 12 16 1024.7 - 0.0 - - - - - - -
16/09:30am 18.2 E 11 17 1024.7 - 0.0 - - - - - - -
16/09:00am 18.0 E 11 16 1024.7 - 0.0 - - - - - - -
16/08:30am 17.8 ENE 10 17 1024.1 - 0.0 - - - - - - -
16/08:00am 17.7 E 12 20 1023.6 - 0.0 - - - - - - -
16/07:30am 17.2 ENE 10 17 1023.2 - 0.0 - - - - - - -
16/07:00am 16.7 ENE 10 17 1023.0 - 0.0 - - - - - - -
16/06:30am 16.5 ENE 11 15 1022.8 - 0.0 - - - - - - -
16/06:00am 16.5 ENE 9 14 1022.6 - 0.0 - - - - - - -
16/05:30am 16.6 ENE 11 19 1022.2 - 0.0 - - - - - - -
16/05:00am 16.3 ENE 9 15 1022.1 - 0.0 - - - - - - -
16/04:30am 16.6 ENE 11 16 1022.1 - 0.0 - - - - - - -
16/04:00am 16.7 ENE 11 17 1021.9 - 0.0 - - - - - - -
16/03:30am 16.9 ENE 12 17 1022.0 - 0.0 - - - - - - -
16/03:00am 17.1 ENE 11 17 1022.1 - 0.0 - - - - - - -
16/02:30am 17.3 ENE 11 16 1022.4 - 0.0 - - - - - - -
16/02:00am 17.1 ENE 12 17 1022.6 - 0.0 - - - - - - -
16/01:30am 17.2 ENE 12 17 1022.8 - 0.0 - - - - - - -
16/01:00am 17.5 ENE 10 15 1023.1 - 0.0 - - - - - - -
16/12:30am 17.2 ENE 9 13 1023.3 - 0.0 - - - - - - -
16/12:00am 15.6 CALM 0 0 1023.3 - 0.0 - - - - - - -
 
Date/Time
EDT
Temp
°C
Wind Pressure Rain since
9am
mm
Weather Cloud Vis
km
Sea
Height
m
Swell
Dir  Spd
kts
Gust
kts
hPa Trend Height
m
Period
s
Dir
15/11:30pm 15.2 CALM 0 0 1023.1 - 0.0 - - - - - - -
15/11:00pm 14.9 CALM 0 0 1023.0 - 0.0 - - - - - - -
15/10:30pm 14.2 NNE 1 2 1022.7 - 0.0 - - - - - - -
15/10:00pm 14.5 NNE 2 2 1022.4 - 0.0 - - - - - - -
15/09:30pm 15.3 CALM 0 1 1021.9 - 0.0 - - - - - - -
15/09:00pm 15.8 SW 3 3 1021.6 - 0.0 - - - - - - -
15/08:30pm 17.7 SW 4 5 1021.2 - 0.0 - - - - - - -
15/08:00pm 18.4 SW 5 8 1020.9 - 0.0 - - - - - - -
15/07:30pm 18.7 SW 6 9 1020.7 - 0.0 - - - - - - -
15/07:00pm 19.1 SW 7 11 1020.4 - 0.0 - - - - - - -
15/06:30pm 18.9 SW 9 13 1019.9 - 0.0 - - - - - - -
15/06:00pm 19.6 SW 10 14 1019.7 - 0.0 - - - - - - -
15/05:30pm 19.3 SW 9 13 1019.7 - 0.0 - - - - - - -
15/05:00pm 18.9 SSW 10 14 1019.7 - 0.0 - - - - - - -
15/04:30pm 19.9 SW 12 17 1019.9 - 0.0 - - - - - - -
15/04:00pm 19.0 SW 12 16 1019.9 - 0.0 - - - - - - -
15/03:30pm 19.2 SW 14 18 1019.8 - 0.0 - - - - - - -
15/03:00pm 19.4 SW 13 17 1019.9 - 0.0 - - - - - - -
15/02:30pm 19.4 SW 14 18 1019.8 - 0.0 - - - - - - -
15/02:00pm 20.3 SW 15 20 1019.8 - 0.0 - - - - - - -
15/01:30pm 19.7 SW 14 19 1019.9 - 0.0 - - - - - - -
15/01:00pm 19.0 SW 15 20 1020.0 - 0.0 - - - - - - -
15/12:30pm 19.9 SW 15 20 1019.8 - 0.0 - - - - - - -
15/12:00pm 20.1 SW 15 20 1019.6 - 0.0 - - - - - - -
15/11:30am 18.9 SW 16 20 1019.6 - 0.0 - - - - - - -
15/11:00am 18.9 WSW 14 19 1019.6 - 0.0 - - - - - - -
15/10:30am 18.9 SW 15 23 1019.4 - 0.0 - - - - - - -
15/10:00am 17.5 SW 17 23 1019.3 - 0.0 - - - - - - -
15/09:30am 18.5 WSW 13 18 1019.1 - 0.0 - - - - - - -
15/09:00am 17.6 SW 14 19 1019.0 - 0.0 - - - - - - -
15/08:30am 17.7 SW 15 20 1018.6 - 0.0 - - - - - - -
15/08:00am 17.7 SW 13 18 1018.2 - 0.0 - - - - - - -
15/07:30am 17.1 SW 13 19 1017.9 - 0.0 - - - - - - -
15/07:00am 16.5 SW 11 15 1017.6 - 0.0 - - - - - - -
15/06:30am 16.0 SW 13 19 1017.4 - 0.0 - - - - - - -
15/06:00am 16.5 WSW 12 17 1017.2 - 0.0 - - - - - - -
15/05:30am 16.1 WSW 12 18 1017.1 - 0.0 - - - - - - -
15/05:00am 15.7 WSW 11 17 1017.3 - 0.0 - - - - - - -
15/04:30am 16.2 SW 14 20 1017.2 - 0.0 - - - - - - -
15/04:00am 16.3 WSW 12 17 1017.1 - 0.0 - - - - - - -
15/03:30am 16.4 WSW 12 19 1016.9 - 0.0 - - - - - - -
15/03:00am 16.3 WSW 12 15 1017.3 - 0.0 - - - - - - -
15/02:30am 16.3 WSW 11 16 1017.7 - 0.0 - - - - - - -
15/02:00am 16.3 WSW 10 14 1018.0 - 0.0 - - - - - - -
15/01:30am 16.3 WSW 13 17 1018.2 - 0.0 - - - - - - -
15/01:00am 16.1 WSW 13 19 1018.5 - 0.0 - - - - - - -
15/12:30am 15.7 WSW 11 17 1018.5 - 0.0 - - - - - - -
15/12:00am 15.9 WSW 11 15 1018.6 - 0.0 - - - - - - -
 
Date/Time
EDT
Temp
°C
Wind Pressure Rain since
9am
mm
Weather Cloud Vis
km
Sea
Height
m
Swell
Dir  Spd
kts
Gust
kts
hPa Trend Height
m
Period
s
Dir
14/11:30pm 15.1 W 9 14 1018.6 - 0.0 - - - - - - -
14/11:00pm 15.6 W 11 14 1018.8 - 0.0 - - - - - - -
14/10:30pm 15.7 W 10 13 1018.9 - 0.0 - - - - - - -
14/10:00pm 15.6 WSW 10 14 1018.8 - 0.0 - - - - - - -
14/09:30pm 15.4 WSW 12 17 1018.8 - 0.0 - - - - - - -
14/09:00pm 15.8 WSW 14 19 1018.6 - 0.0 - - - - - - -
14/08:30pm 15.7 WSW 11 16 1018.7 - 0.0 - - - - - - -
14/08:00pm 15.9 WSW 15 20 1018.7 - 0.0 - - - - - - -
14/07:30pm 15.9 WSW 14 18 1018.5 - 0.0 - - - - - - -
14/07:00pm 16.7 WSW 13 17 1018.2 - 0.0 - - - - - - -
14/06:30pm 16.9 WSW 14 19 1018.1 - 0.0 - - - - - - -
14/06:00pm 17.3 WSW 14 20 1018.1 - 0.0 - - - - - - -
14/05:30pm 17.6 WSW 14 20 1018.2 - 0.0 - - - - - - -
14/05:00pm 17.9 WSW 14 19 1018.2 - 0.0 - - - - - - -
14/04:30pm 18.1 SW 14 19 1018.3 - 0.0 - - - - - - -
14/04:00pm 17.7 WSW 13 17 1018.3 - 0.0 - - - - - - -
14/03:30pm 17.9 SW 16 21 1018.3 - 0.0 - - - - - - -
14/03:00pm 18.0 SW 13 19 1018.3 - 0.0 - - - - - - -
14/02:30pm 17.7 SW 13 18 1018.6 - 0.0 - - - - - - -
14/02:00pm 17.9 SW 13 19 1018.7 - 0.0 - - - - - - -
14/01:30pm 17.2 SW 12 16 1018.7 - 0.0 - - - - - - -
14/01:00pm 17.6 SW 14 20 1018.7 - 0.0 - - - - - - -
14/12:30pm 17.4 SW 13 18 1018.6 - 0.0 - - - - - - -
14/12:00pm 17.8 SW 13 18 1018.2 - 0.0 - - - - - - -
14/11:30am 17.7 SW 14 18 1018.2 - 0.0 - - - - - - -
14/11:00am 16.8 SW 13 20 1017.9 - 0.0 - - - - - - -
14/10:30am 16.0 SSW 13 19 1017.6 - 0.0 - - - - - - -
14/10:00am 16.7 SSW 12 17 1017.2 - 0.0 - - - - - - -
14/09:30am 16.2 SSW 10 15 1016.8 - 0.0 - - - - - - -
14/09:00am 16.1 SSW 13 19 1016.4 - 6.4 - - - - - - -
14/08:30am 16.1 SSW 11 17 1015.9 - 6.4 - - - - - - -
14/08:00am 15.1 S 10 15 1015.2 - 6.4 - - - - - - -
14/07:30am 15.0 S 8 12 1014.4 - 6.4 - - - - - - -
14/07:00am 14.3 SSW 10 15 1013.9 - 6.4 - - - - - - -
14/06:30am 13.5 SSW 11 16 1013.5 - 6.4 - - - - - - -

Other Formats:

Comma delimited format used in spreadsheet applications
http://www.bom.gov.au/fwo/IDV60701/IDV60701.94911.axf

JavaScript Object Notation format (JSON) in row-major order
http://www.bom.gov.au/fwo/IDV60701/IDV60701.94911.json